Time;durP1;ratioP1;P1;durP2;ratioP2;P2;SDS_P1;SDS_P2;PMS_P1;PMS_P2;Temp;Humidity;BMP_temperature;BMP_pressure;BME280_temperature;BME280_humidity;BME280_pressure;Samples;Min_cycle;Max_cycle;Signal;HPM_P1;HPM_P2
2023/04/08 00:02:04;;;;;;;8.75;5.43;;;6.40;99.90;;;;;;5030276;28;20040;-75
2023/04/08 00:04:31;;;;;;;8.45;5.97;;;6.40;99.90;;;;;;5026076;28;20471;-74
2023/04/08 00:06:57;;;;;;;9.90;5.25;;;6.40;95.80;;;;;;5024099;28;20025;-74
2023/04/08 00:09:23;;;;;;;10.68;5.47;;;6.40;94.20;;;;;;5030717;28;20037;-74
2023/04/08 00:11:49;;;;;;;7.72;5.28;;;6.50;92.20;;;;;;5031285;28;20045;-74
2023/04/08 00:14:15;;;;;;;7.53;5.10;;;6.50;90.70;;;;;;5029035;28;20049;-74
2023/04/08 00:16:41;;;;;;;9.70;6.03;;;6.50;90.60;;;;;;5030040;28;20029;-74
2023/04/08 00:19:07;;;;;;;11.05;5.50;;;6.50;92.10;;;;;;5027716;28;20041;-74
2023/04/08 00:21:33;;;;;;;9.63;5.85;;;6.60;93.00;;;;;;5031353;28;20036;-74
2023/04/08 00:24:00;;;;;;;9.48;4.93;;;6.60;92.90;;;;;;5027389;28;20037;-82
2023/04/08 00:26:26;;;;;;;9.13;6.07;;;6.60;91.60;;;;;;5022883;28;20036;-74
2023/04/08 00:28:52;;;;;;;8.23;5.40;;;6.60;88.80;;;;;;5031753;28;20025;-74
2023/04/08 00:31:18;;;;;;;7.50;4.65;;;6.60;87.00;;;;;;5028626;28;20029;-74
2023/04/08 00:33:44;;;;;;;11.55;6.07;;;6.70;88.40;;;;;;5030307;28;20148;-75
2023/04/08 00:36:10;;;;;;;14.25;7.97;;;6.70;90.90;;;;;;5016373;28;20407;-74
2023/04/08 00:38:36;;;;;;;9.52;7.00;;;6.70;92.30;;;;;;5030665;28;20036;-74
2023/04/08 00:41:02;;;;;;;8.60;5.22;;;6.70;90.50;;;;;;5029527;28;20033;-74
2023/04/08 00:43:29;;;;;;;7.70;5.38;;;6.80;88.40;;;;;;5032382;28;20052;-75
2023/04/08 00:45:55;;;;;;;8.73;5.50;;;6.80;89.10;;;;;;5032787;28;20034;-74
2023/04/08 00:48:21;;;;;;;9.60;5.85;;;6.80;86.20;;;;;;5030737;28;20034;-74
2023/04/08 00:50:47;;;;;;;9.23;6.13;;;6.80;83.80;;;;;;5024227;28;20429;-74
2023/04/08 00:53:17;;;;;;;10.32;6.13;;;6.80;86.90;;;;;;5028962;28;20391;-74
2023/04/08 00:55:44;;;;;;;9.38;6.13;;;6.80;90.20;;;;;;5033819;28;20060;-74
2023/04/08 00:58:12;;;;;;;9.38;5.55;;;6.90;89.90;;;;;;5034466;28;20021;-75
2023/04/08 01:00:45;;;;;;;10.30;5.90;;;6.90;88.20;;;;;;5030264;28;20353;-74
2023/04/08 01:03:23;;;;;;;9.63;6.43;;;6.90;88.40;;;;;;5035384;28;20021;-74
2023/04/08 01:06:03;;;;;;;9.23;6.28;;;6.90;88.50;;;;;;5030246;28;20038;-74
2023/04/08 01:08:31;;;;;;;11.10;7.32;;;6.90;90.40;;;;;;5023066;28;20042;-74
2023/04/08 01:11:00;;;;;;;11.05;7.15;;;6.90;91.60;;;;;;5031252;28;20494;-74
2023/04/08 01:13:34;;;;;;;12.68;7.43;;;6.90;90.70;;;;;;5025794;28;20025;-74
2023/04/08 01:16:00;;;;;;;13.30;7.63;;;6.90;88.90;;;;;;5029403;28;20096;-74
2023/04/08 01:18:34;;;;;;;11.93;7.18;;;6.90;87.60;;;;;;5026998;28;20042;-74
2023/04/08 01:21:01;;;;;;;12.73;7.85;;;6.90;86.00;;;;;;5026767;28;20046;-74
2023/04/08 01:23:45;;;;;;;13.38;7.57;;;6.90;83.90;;;;;;5029336;28;20025;-74
2023/04/08 01:26:22;;;;;;;14.13;7.75;;;6.90;83.20;;;;;;5027088;28;20056;-74
2023/04/08 01:28:56;;;;;;;12.90;6.75;;;6.90;82.40;;;;;;5040855;28;20046;-74
2023/04/08 01:31:25;;;;;;;11.07;6.35;;;6.90;84.10;;;;;;5039488;28;20049;-74
2023/04/08 01:33:51;;;;;;;13.10;8.07;;;6.90;83.30;;;;;;5032240;28;20045;-74
2023/04/08 01:36:19;;;;;;;10.50;6.78;;;6.90;84.40;;;;;;5029377;28;20475;-74
2023/04/08 01:38:46;;;;;;;12.93;7.80;;;6.90;84.10;;;;;;5030826;28;20034;-74
2023/04/08 01:41:17;;;;;;;13.18;8.07;;;6.80;87.20;;;;;;5033920;28;20049;-74
2023/04/08 01:43:43;;;;;;;11.20;7.20;;;6.80;90.00;;;;;;5034612;28;20033;-75
2023/04/08 01:46:11;;;;;;;12.13;7.40;;;6.90;90.50;;;;;;5026091;28;20069;-74
2023/04/08 01:48:38;;;;;;;14.02;7.82;;;6.90;91.40;;;;;;5039132;28;20049;-74
2023/04/08 01:51:05;;;;;;;15.10;11.52;;;6.90;92.40;;;;;;5033702;28;20033;-75
2023/04/08 01:53:32;;;;;;;13.13;8.02;;;7.00;91.60;;;;;;5030055;28;20033;-74
2023/04/08 01:56:07;;;;;;;15.65;9.40;;;7.00;85.00;;;;;;5031945;28;20050;-75
2023/04/08 01:58:40;;;;;;;13.27;9.32;;;7.00;77.20;;;;;;5042191;28;20041;-74
2023/04/08 02:01:11;;;;;;;15.80;8.00;;;7.00;71.30;;;;;;5019816;28;20038;-74
2023/04/08 02:03:40;;;;;;;12.55;7.55;;;7.00;66.30;;;;;;5038651;28;20046;-74
2023/04/08 02:06:06;;;;;;;14.13;7.68;;;7.10;63.00;;;;;;5025415;28;20412;-74
2023/04/08 02:08:34;;;;;;;13.23;8.30;;;7.00;60.60;;;;;;5030628;28;20033;-74
2023/04/08 02:11:00;;;;;;;17.17;9.30;;;7.00;61.80;;;;;;5025576;28;20045;-74
2023/04/08 02:13:28;;;;;;;13.40;8.65;;;7.10;60.10;;;;;;5030857;28;20380;-74
2023/04/08 02:16:15;;;;;;;14.23;8.35;;;7.10;58.30;;;;;;5034596;28;20065;-74
2023/04/08 02:18:59;;;;;;;15.27;8.25;;;7.10;56.90;;;;;;5018675;28;20037;-83
2023/04/08 02:21:35;;;;;;;12.93;8.25;;;7.10;55.00;;;;;;5018470;28;20041;-74
2023/04/08 02:24:06;;;;;;;11.13;7.35;;;7.10;51.10;;;;;;5028797;28;20045;-76
2023/04/08 02:26:35;;;;;;;13.02;8.18;;;7.10;50.50;;;;;;5028176;28;20029;-77
2023/04/08 02:29:04;;;;;;;14.25;7.28;;;7.10;51.70;;;;;;5026740;28;20037;-75
2023/04/08 02:31:30;;;;;;;13.85;7.35;;;7.10;52.20;;;;;;5025991;28;20471;-74
2023/04/08 02:33:57;;;;;;;13.90;8.55;;;7.10;54.60;;;;;;5029015;28;20046;-74
2023/04/08 02:36:25;;;;;;;14.30;8.27;;;7.00;58.00;;;;;;5031974;28;20046;-74
2023/04/08 02:38:51;;;;;;;13.00;8.80;;;7.00;59.00;;;;;;5029792;28;20040;-74
2023/04/08 02:41:17;;;;;;;12.70;7.50;;;7.00;61.60;;;;;;5016979;28;20038;-75
2023/04/08 02:43:44;;;;;;;16.80;7.88;;;7.00;64.50;;;;;;5033556;28;20065;-75
2023/04/08 02:46:10;;;;;;;14.68;9.00;;;6.90;67.60;;;;;;5021069;28;20038;-74
2023/04/08 02:48:37;;;;;;;15.95;8.20;;;6.90;72.00;;;;;;5031817;28;20041;-74
2023/04/08 02:51:03;;;;;;;14.85;9.05;;;6.90;75.80;;;;;;5026502;28;20057;-74
2023/04/08 02:53:29;;;;;;;14.27;8.05;;;6.90;78.40;;;;;;5028215;28;20048;-74
2023/04/08 02:55:55;;;;;;;14.82;7.40;;;6.90;80.90;;;;;;5027656;28;20471;-74
2023/04/08 02:58:21;;;;;;;12.68;6.93;;;6.90;86.50;;;;;;5025929;28;20034;-74
2023/04/08 03:00:47;;;;;;;10.57;6.75;;;6.90;89.70;;;;;;5027554;28;20040;-75
2023/04/08 03:03:13;;;;;;;11.57;6.53;;;6.90;88.70;;;;;;5027362;28;20033;-74
2023/04/08 03:05:40;;;;;;;11.65;6.72;;;6.90;86.40;;;;;;5030998;28;20064;-74
2023/04/08 03:08:06;;;;;;;13.68;8.38;;;6.90;86.70;;;;;;5032475;28;20045;-74
2023/04/08 03:10:32;;;;;;;12.43;7.70;;;6.90;90.50;;;;;;5031725;28;20025;-76
2023/04/08 03:12:58;;;;;;;14.25;8.27;;;6.90;93.50;;;;;;5031409;28;20044;-74
2023/04/08 03:15:24;;;;;;;13.77;10.02;;;6.90;94.40;;;;;;5032160;28;20375;-74
2023/04/08 03:17:50;;;;;;;14.98;7.68;;;6.90;94.20;;;;;;5032021;28;20056;-79
2023/04/08 03:20:17;;;;;;;13.80;8.32;;;6.90;94.50;;;;;;5027327;28;20029;-75
2023/04/08 03:22:43;;;;;;;12.90;7.60;;;7.00;93.30;;;;;;5030969;28;20040;-74
2023/04/08 03:25:10;;;;;;;17.05;9.88;;;6.90;92.10;;;;;;5029511;28;20387;-74
2023/04/08 03:27:36;;;;;;;15.73;9.38;;;6.90;91.50;;;;;;5031598;28;20029;-74
2023/04/08 03:30:03;;;;;;;14.77;8.23;;;6.90;92.00;;;;;;5029697;28;20143;-74
2023/04/08 03:32:29;;;;;;;15.20;8.95;;;6.90;92.80;;;;;;5030077;28;20034;-75
2023/04/08 03:34:55;;;;;;;16.00;8.95;;;6.90;93.00;;;;;;5021130;28;20044;-75
2023/04/08 03:37:21;;;;;;;13.98;8.57;;;6.90;93.60;;;;;;5033170;28;20045;-74
2023/04/08 03:39:47;;;;;;;12.50;9.02;;;6.90;94.30;;;;;;5032503;28;20033;-74
2023/04/08 03:42:13;;;;;;;15.20;8.63;;;6.90;95.10;;;;;;5028603;28;20398;-74
2023/04/08 03:44:39;;;;;;;18.27;9.25;;;6.90;96.80;;;;;;5025330;28;20042;-74
2023/04/08 03:47:05;;;;;;;18.35;10.45;;;6.90;98.70;;;;;;5031436;28;20037;-75
2023/04/08 03:49:32;;;;;;;13.18;8.07;;;6.90;98.80;;;;;;5027762;28;20033;-75
2023/04/08 03:51:58;;;;;;;16.10;9.95;;;6.90;99.60;;;;;;5029989;28;20482;-74
2023/04/08 03:54:24;;;;;;;14.50;8.40;;;6.90;99.90;;;;;;5031919;28;20037;-74
2023/04/08 03:56:50;;;;;;;16.63;11.48;;;6.90;99.90;;;;;;5030228;28;20037;-74
2023/04/08 03:59:16;;;;;;;17.08;9.73;;;6.90;99.90;;;;;;5031674;28;20451;-74
2023/04/08 04:01:42;;;;;;;20.50;10.63;;;6.90;99.90;;;;;;5019730;28;20033;-75
2023/04/08 04:04:08;;;;;;;17.85;10.05;;;6.90;99.90;;;;;;5030644;28;20040;-74
2023/04/08 04:06:34;;;;;;;17.98;10.05;;;6.80;99.90;;;;;;5023253;28;20044;-74
2023/04/08 04:09:01;;;;;;;16.10;9.93;;;6.90;99.90;;;;;;5030494;28;20064;-75
2023/04/08 04:11:27;;;;;;;18.67;10.25;;;6.90;99.90;;;;;;5029050;28;20029;-74
2023/04/08 04:13:53;;;;;;;16.63;9.27;;;6.90;99.90;;;;;;5024359;28;20041;-75
2023/04/08 04:16:19;;;;;;;15.05;9.25;;;6.90;99.90;;;;;;5030902;28;20053;-74
2023/04/08 04:18:45;;;;;;;16.65;11.30;;;6.90;99.90;;;;;;5026749;28;20026;-77
2023/04/08 04:21:11;;;;;;;16.83;10.27;;;6.90;99.90;;;;;;5029364;28;20040;-75
2023/04/08 04:23:37;;;;;;;19.80;10.77;;;6.90;99.90;;;;;;5029034;28;20034;-74
2023/04/08 04:26:08;;;;;;;15.68;9.98;;;6.90;99.90;;;;;;5030419;28;20033;-74
2023/04/08 04:28:35;;;;;;;18.23;11.52;;;6.80;99.90;;;;;;5028018;28;20056;-74
2023/04/08 04:31:01;;;;;;;20.90;11.88;;;6.90;99.90;;;;;;5023744;28;20472;-75
2023/04/08 04:33:27;;;;;;;22.33;13.88;;;6.90;99.90;;;;;;5030007;28;20475;-74
2023/04/08 04:35:53;;;;;;;19.45;11.82;;;6.80;99.90;;;;;;5020093;28;20057;-86
2023/04/08 04:38:20;;;;;;;24.30;12.57;;;6.90;99.90;;;;;;5028582;28;20037;-75
2023/04/08 04:40:46;;;;;;;25.63;13.57;;;6.90;99.90;;;;;;5029708;28;20439;-75
2023/04/08 04:43:12;;;;;;;26.17;14.15;;;6.80;99.90;;;;;;5022280;28;20069;-75
2023/04/08 04:45:38;;;;;;;23.92;14.00;;;6.90;99.90;;;;;;5027605;28;20070;-75
2023/04/08 04:48:04;;;;;;;20.83;12.52;;;6.90;99.90;;;;;;5025842;28;20037;-75
2023/04/08 04:50:30;;;;;;;22.77;13.18;;;6.90;99.90;;;;;;5027886;28;20045;-75
2023/04/08 04:52:56;;;;;;;21.65;13.48;;;6.90;99.90;;;;;;5021186;28;20048;-76
2023/04/08 04:55:23;;;;;;;22.80;13.60;;;6.90;99.90;;;;;;5027233;28;20037;-76
2023/04/08 04:57:49;;;;;;;24.20;12.55;;;6.90;98.50;;;;;;5020039;28;20049;-75
2023/04/08 05:00:15;;;;;;;20.77;11.55;;;7.00;94.90;;;;;;5030923;28;20467;-75
2023/04/08 05:02:42;;;;;;;22.80;11.80;;;7.00;90.30;;;;;;5024992;28;20030;-75
2023/04/08 05:05:08;;;;;;;20.85;12.23;;;7.00;76.50;;;;;;5039067;28;20053;-75
2023/04/08 05:07:38;;;;;;;20.02;11.23;;;7.00;67.30;;;;;;5026668;28;20025;-75
2023/04/08 05:10:04;;;;;;;18.60;10.80;;;7.00;57.90;;;;;;5030449;28;20037;-75
2023/04/08 05:12:31;;;;;;;19.85;12.02;;;7.00;52.50;;;;;;5027878;28;20045;-75
2023/04/08 05:14:58;;;;;;;17.90;11.05;;;7.00;50.10;;;;;;5028923;28;20037;-76
2023/04/08 05:17:24;;;;;;;19.60;11.52;;;7.00;39.20;;;;;;5027306;28;20061;-75
2023/04/08 05:19:52;;;;;;;15.70;10.75;;;7.00;36.00;;;;;;5027322;28;20030;-75
2023/04/08 05:22:18;;;;;;;11.95;8.88;;;7.10;31.20;;;;;;5029631;28;20026;-75
2023/04/08 05:24:44;;;;;;;14.38;9.52;;;7.00;16.10;;;;;;5019056;28;20061;-75
2023/04/08 05:27:10;;;;;;;13.75;10.15;;;7.00;10.80;;;;;;5027476;28;20033;-75
2023/04/08 05:29:36;;;;;;;13.43;9.05;;;7.10;3.50;;;;;;5034712;28;20037;-75
2023/04/08 05:32:02;;;;;;;12.38;8.77;;;7.10;1.00;;;;;;5030508;28;20033;-76
2023/04/08 05:34:30;;;;;;;11.75;8.02;;;7.30;1.00;;;;;;5031181;28;20033;-75
2023/04/08 05:36:57;;;;;;;9.63;7.00;;;7.50;1.00;;;;;;5030488;28;20036;-87
2023/04/08 05:39:23;;;;;;;11.00;7.47;;;8.00;1.00;;;;;;5033172;28;20390;-76
2023/04/08 05:41:49;;;;;;;9.40;6.85;;;8.40;1.00;;;;;;5031882;28;20481;-75
2023/04/08 05:44:15;;;;;;;10.20;6.32;;;8.70;1.00;;;;;;5025653;28;20048;-76
2023/04/08 05:46:41;;;;;;;8.60;5.30;;;8.80;1.00;;;;;;5023410;28;20041;-75
2023/04/08 05:49:07;;;;;;;10.02;6.65;;;8.90;1.00;;;;;;5032893;28;20033;-76
2023/04/08 05:51:34;;;;;;;8.18;6.00;;;8.90;1.00;;;;;;5031284;28;20102;-76
2023/04/08 05:54:00;;;;;;;8.85;6.22;;;8.80;1.00;;;;;;5028630;28;20040;-74
2023/04/08 05:56:26;;;;;;;8.32;5.68;;;8.60;1.00;;;;;;5029790;28;20033;-73
2023/04/08 05:58:52;;;;;;;9.23;6.25;;;8.20;1.00;;;;;;5030505;28;20387;-74
2023/04/08 06:01:18;;;;;;;7.50;5.55;;;8.40;1.00;;;;;;5020735;28;20489;-73
2023/04/08 06:03:44;;;;;;;8.38;5.07;;;8.70;1.00;;;;;;5033414;28;20052;-74
2023/04/08 06:06:11;;;;;;;6.70;4.93;;;8.60;1.00;;;;;;5028409;28;20046;-75
2023/04/08 06:08:37;;;;;;;7.25;4.63;;;9.00;1.00;;;;;;5033802;28;20034;-75
2023/04/08 06:11:04;;;;;;;7.18;5.65;;;9.00;1.00;;;;;;5032884;28;20025;-74
2023/04/08 06:13:30;;;;;;;7.57;5.20;;;8.90;1.00;;;;;;5032410;28;20569;-74
2023/04/08 06:15:58;;;;;;;9.55;5.25;;;8.50;1.00;;;;;;5033983;28;20044;-74
2023/04/08 06:18:24;;;;;;;8.70;5.10;;;8.70;1.00;;;;;;5032046;28;20105;-74
2023/04/08 06:20:50;;;;;;;8.25;5.70;;;8.40;1.00;;;;;;5031852;28;20034;-74
2023/04/08 06:23:16;;;;;;;6.90;4.93;;;8.50;1.00;;;;;;5025156;28;20467;-75
2023/04/08 06:25:43;;;;;;;9.02;5.72;;;8.40;1.00;;;;;;5027887;28;20052;-74
2023/04/08 06:28:09;;;;;;;6.78;4.93;;;8.40;1.00;;;;;;5023738;28;20386;-74
2023/04/08 06:30:35;;;;;;;5.88;4.57;;;8.60;1.00;;;;;;5025489;28;20036;-74
2023/04/08 06:33:01;;;;;;;9.60;5.60;;;8.70;1.00;;;;;;5027038;28;20041;-75
2023/04/08 06:35:27;;;;;;;6.25;5.10;;;9.00;1.00;;;;;;5027666;28;20041;-75
2023/04/08 06:37:53;;;;;;;7.85;4.85;;;9.50;1.00;;;;;;5030831;28;20048;-75
2023/04/08 06:40:20;;;;;;;7.15;4.85;;;9.40;99.90;;;;;;5030948;28;20045;-75
2023/04/08 06:42:46;;;;;;;6.68;4.55;;;9.60;99.90;;;;;;5032333;28;20048;-75
2023/04/08 06:45:20;;;;;;;6.60;4.22;;;9.90;99.90;;;;;;5041999;28;20222;-76
2023/04/08 06:47:47;;;;;;;7.70;4.90;;;10.10;99.90;;;;;;5029642;28;20471;-76
2023/04/08 06:50:13;;;;;;;4.88;3.65;;;9.90;99.90;;;;;;5027582;28;20041;-76
2023/04/08 06:52:42;;;;;;;7.78;5.47;;;10.30;99.90;;;;;;5029031;28;20040;-75
2023/04/08 06:55:08;;;;;;;6.60;4.90;;;10.90;99.90;;;;;;5030668;28;20466;-75
2023/04/08 06:57:34;;;;;;;5.65;3.92;;;11.30;99.90;;;;;;5032185;28;20391;-75
2023/04/08 07:00:00;;;;;;;6.20;4.88;;;11.60;99.90;;;;;;5032115;28;20045;-74
2023/04/08 07:02:27;;;;;;;5.93;5.22;;;11.70;99.90;;;;;;5032090;28;20037;-74
2023/04/08 07:04:53;;;;;;;7.03;5.70;;;11.10;99.90;;;;;;5032844;28;20029;-75
2023/04/08 07:07:19;;;;;;;8.60;5.13;;;10.30;99.90;;;;;;5031384;28;20042;-75
2023/04/08 07:09:45;;;;;;;8.93;6.85;;;10.00;99.90;;;;;;5028097;28;20048;-75
2023/04/08 07:12:12;;;;;;;9.20;6.00;;;9.70;99.90;;;;;;5029309;28;20037;-75
2023/04/08 07:14:38;;;;;;;6.82;5.20;;;10.40;99.90;;;;;;5033094;28;20053;-74
2023/04/08 07:17:04;;;;;;;7.93;5.50;;;10.50;99.90;;;;;;5030783;28;20045;-75
2023/04/08 07:19:31;;;;;;;6.78;5.35;;;10.40;99.90;;;;;;5032388;28;20497;-75
2023/04/08 07:21:57;;;;;;;6.05;4.88;;;10.20;99.90;;;;;;5031009;28;20030;-74
2023/04/08 07:24:23;;;;;;;7.45;5.63;;;10.30;99.90;;;;;;5032688;28;20041;-74
2023/04/08 07:26:50;;;;;;;5.93;5.15;;;9.80;99.90;;;;;;5032511;28;20056;-74
2023/04/08 07:29:16;;;;;;;9.23;5.47;;;9.50;99.90;;;;;;5031637;28;20374;-74
2023/04/08 07:31:43;;;;;;;7.10;5.47;;;9.50;99.90;;;;;;5030238;28;20025;-74
2023/04/08 07:34:09;;;;;;;10.52;6.50;;;9.30;99.90;;;;;;5031397;28;20379;-74
2023/04/08 07:36:35;;;;;;;8.40;6.18;;;9.40;99.90;;;;;;5027812;28;20045;-74
2023/04/08 07:39:02;;;;;;;8.32;5.72;;;9.30;99.90;;;;;;5031393;28;20033;-74
2023/04/08 07:41:28;;;;;;;8.15;5.78;;;9.40;99.90;;;;;;5029705;28;20026;-75
2023/04/08 07:43:55;;;;;;;7.05;5.22;;;9.50;99.90;;;;;;5031214;28;20040;-74
2023/04/08 07:46:21;;;;;;;10.45;5.97;;;9.30;99.90;;;;;;5029305;28;20049;-74
2023/04/08 07:48:47;;;;;;;8.43;6.18;;;9.20;99.90;;;;;;5031841;28;20029;-74
2023/04/08 07:51:13;;;;;;;10.18;6.22;;;9.20;99.90;;;;;;5030171;28;20044;-74
2023/04/08 07:53:39;;;;;;;9.30;6.57;;;9.10;99.90;;;;;;5030805;28;20041;-74
2023/04/08 07:56:13;;;;;;;8.43;6.93;;;8.80;99.90;;;;;;5029438;28;20040;-74
2023/04/08 07:58:39;;;;;;;9.00;6.40;;;9.00;99.90;;;;;;5028481;28;20034;-74
2023/04/08 08:01:29;;;;;;;8.35;5.88;;;9.20;99.90;;;;;;5030232;28;20033;-74
2023/04/08 08:03:56;;;;;;;7.73;5.70;;;9.40;99.90;;;;;;5029255;28;20052;-74
2023/04/08 08:06:22;;;;;;;8.73;5.55;;;9.80;99.90;;;;;;5029446;28;20033;-74
2023/04/08 08:08:48;;;;;;;8.13;5.72;;;10.20;99.90;;;;;;5030860;28;20056;-75
2023/04/08 08:11:14;;;;;;;8.82;6.22;;;10.60;99.90;;;;;;5024125;28;20052;-79
2023/04/08 08:13:40;;;;;;;9.50;5.80;;;10.70;99.90;;;;;;5018789;28;20061;-77
2023/04/08 08:16:10;;;;;;;8.82;5.93;;;11.10;99.90;;;;;;5030816;28;20034;-74
2023/04/08 08:18:39;;;;;;;9.80;7.13;;;11.00;99.90;;;;;;5029303;28;20466;-74
2023/04/08 08:21:05;;;;;;;9.10;6.00;;;11.00;99.90;;;;;;5027158;28;20025;-76
2023/04/08 08:23:31;;;;;;;8.77;6.32;;;10.80;99.90;;;;;;5030009;28;20054;-74
2023/04/08 08:25:59;;;;;;;10.95;6.90;;;9.90;99.90;;;;;;5030414;28;20064;-74
2023/04/08 08:28:26;;;;;;;10.20;6.30;;;9.80;99.90;;;;;;5028104;28;20042;-73
2023/04/08 08:30:52;;;;;;;7.57;6.07;;;9.60;99.90;;;;;;5023567;28;20375;-73
2023/04/08 08:33:18;;;;;;;13.98;7.40;;;9.50;99.90;;;;;;5022903;28;20371;-73
2023/04/08 08:35:45;;;;;;;9.10;6.82;;;9.50;99.90;;;;;;5031193;28;20389;-74
2023/04/08 08:38:12;;;;;;;9.57;6.43;;;9.30;99.90;;;;;;5027151;28;20390;-73
2023/04/08 08:40:39;;;;;;;9.82;6.05;;;9.60;99.90;;;;;;5022606;28;20030;-73
2023/04/08 08:43:05;;;;;;;13.32;6.43;;;9.60;99.90;;;;;;5029679;28;20037;-73
2023/04/08 08:45:32;;;;;;;10.55;7.00;;;9.70;99.90;;;;;;5023824;28;20049;-73
2023/04/08 08:47:58;;;;;;;10.65;6.38;;;9.70;99.90;;;;;;5030300;28;20049;-73
2023/04/08 08:50:24;;;;;;;11.88;6.68;;;9.90;99.90;;;;;;5029680;28;20030;-73
2023/04/08 08:52:51;;;;;;;13.75;7.45;;;10.00;99.90;;;;;;5032136;28;20060;-74
2023/04/08 08:55:19;;;;;;;9.60;6.40;;;10.30;99.90;;;;;;5022472;28;20040;-73
2023/04/08 08:57:47;;;;;;;10.02;7.97;;;10.80;99.90;;;;;;5031266;28;20029;-73
2023/04/08 09:00:15;;;;;;;9.75;7.32;;;10.80;99.90;;;;;;5029272;28;20478;-73
2023/04/08 09:02:41;;;;;;;8.63;6.57;;;11.00;99.90;;;;;;5031501;28;20056;-73
2023/04/08 09:05:07;;;;;;;8.30;6.50;;;11.00;99.90;;;;;;5031580;28;20034;-78
2023/04/08 09:07:40;;;;;;;8.00;6.28;;;11.30;99.90;;;;;;5034792;28;20351;-73
2023/04/08 09:10:08;;;;;;;8.05;6.13;;;11.40;99.90;;;;;;5030671;28;20475;-82
2023/04/08 09:12:34;;;;;;;11.25;6.80;;;11.30;99.90;;;;;;5025486;28;20034;-74
2023/04/08 09:15:08;;;;;;;9.93;6.68;;;11.10;99.90;;;;;;5030377;28;20139;-73
2023/04/08 09:17:37;;;;;;;9.10;6.43;;;11.20;99.90;;;;;;5031680;28;20052;-73
2023/04/08 09:20:11;;;;;;;7.55;6.13;;;11.40;99.90;;;;;;5034600;28;20041;-74
2023/04/08 09:23:01;;;;;;;9.80;7.03;;;10.90;99.90;;;;;;5029980;28;20045;-74
2023/04/08 09:25:29;;;;;;;8.63;6.45;;;10.60;99.90;;;;;;5027805;28;20049;-74
2023/04/08 09:27:55;;;;;;;8.93;6.88;;;11.40;99.90;;;;;;5034816;28;20038;-74
2023/04/08 09:30:23;;;;;;;8.75;6.45;;;11.80;99.90;;;;;;5034205;28;20038;-73
2023/04/08 09:32:51;;;;;;;10.32;7.35;;;12.30;99.90;;;;;;5032256;28;20030;-74
2023/04/08 09:35:18;;;;;;;9.48;6.32;;;11.50;99.90;;;;;;5030209;28;20038;-74
2023/04/08 09:37:45;;;;;;;15.20;7.32;;;11.80;99.90;;;;;;5034514;28;20044;-73
2023/04/08 09:40:12;;;;;;;10.70;6.97;;;12.10;99.90;;;;;;5033026;28;20485;-75
2023/04/08 09:42:42;;;;;;;9.82;7.50;;;11.60;99.90;;;;;;5025783;28;20499;-74
2023/04/08 09:45:10;;;;;;;8.80;7.03;;;11.40;99.90;;;;;;5034018;28;20044;-82
2023/04/08 09:47:54;;;;;;;9.60;7.38;;;12.20;99.90;;;;;;5037485;28;20034;-73
2023/04/08 09:50:26;;;;;;;10.15;7.15;;;12.20;99.90;;;;;;5033639;28;20411;-74
2023/04/08 09:52:59;;;;;;;8.48;7.00;;;11.60;99.90;;;;;;5022542;28;20030;-73
2023/04/08 09:55:29;;;;;;;11.32;7.75;;;11.60;99.90;;;;;;5023411;28;20045;-74
2023/04/08 09:58:00;;;;;;;10.85;7.50;;;11.60;99.90;;;;;;5028514;28;20033;-74
2023/04/08 10:00:32;;;;;;;10.93;7.72;;;11.50;99.90;;;;;;5032532;28;20041;-74
2023/04/08 10:03:11;;;;;;;9.57;7.18;;;11.70;99.90;;;;;;5025559;28;20029;-75
2023/04/08 10:05:41;;;;;;;9.65;6.63;;;11.80;99.90;;;;;;5034343;28;20045;-74
2023/04/08 10:08:07;;;;;;;8.55;6.32;;;11.80;99.90;;;;;;5031358;28;20037;-74
2023/04/08 10:10:35;;;;;;;12.15;8.00;;;11.90;99.90;;;;;;5029581;28;20045;-74
2023/04/08 10:13:03;;;;;;;12.02;7.88;;;11.50;99.90;;;;;;5028138;28;20040;-74
2023/04/08 10:15:30;;;;;;;11.90;7.57;;;11.60;99.90;;;;;;5032401;28;20029;-75
2023/04/08 10:18:05;;;;;;;10.32;7.25;;;11.80;99.90;;;;;;5033889;28;20061;-75
2023/04/08 10:20:34;;;;;;;20.73;8.15;;;11.30;99.90;;;;;;5031864;28;20041;-74
2023/04/08 10:23:01;;;;;;;12.02;7.80;;;10.90;99.90;;;;;;5029401;28;20521;-74
2023/04/08 10:25:29;;;;;;;9.93;7.63;;;10.80;99.90;;;;;;5028629;28;20049;-75
2023/04/08 10:27:55;;;;;;;10.07;7.10;;;10.80;99.90;;;;;;5027617;28;20036;-75
2023/04/08 10:30:27;;;;;;;9.63;7.18;;;10.70;99.90;;;;;;5032695;28;20033;-75
2023/04/08 10:33:00;;;;;;;10.77;7.15;;;10.80;99.90;;;;;;5031230;28;20056;-75
2023/04/08 10:35:35;;;;;;;10.82;8.00;;;10.90;99.90;;;;;;5025834;28;20025;-74
2023/04/08 10:38:02;;;;;;;13.05;8.93;;;10.70;99.90;;;;;;5031469;28;20040;-74
2023/04/08 10:40:35;;;;;;;11.50;9.13;;;10.40;99.90;;;;;;5032571;28;20041;-75
2023/04/08 10:43:01;;;;;;;10.82;7.55;;;10.50;99.90;;;;;;5027769;28;20414;-75
2023/04/08 10:45:27;;;;;;;9.93;7.57;;;10.80;99.90;;;;;;5028839;28;20041;-74
2023/04/08 10:47:53;;;;;;;11.18;7.32;;;10.90;99.90;;;;;;5032014;28;20038;-74
2023/04/08 10:50:23;;;;;;;11.45;7.60;;;11.00;99.90;;;;;;5033652;28;20056;-74
2023/04/08 10:52:53;;;;;;;19.65;8.93;;;11.20;99.90;;;;;;5030419;28;20041;-74
2023/04/08 10:55:26;;;;;;;9.65;7.50;;;11.20;99.90;;;;;;5024772;28;20053;-74
2023/04/08 10:57:53;;;;;;;9.82;7.68;;;11.00;99.90;;;;;;5030095;28;20045;-74
2023/04/08 11:00:38;;;;;;;10.68;7.43;;;11.00;99.90;;;;;;5022927;28;20041;-75
2023/04/08 11:03:10;;;;;;;10.75;7.50;;;10.80;99.90;;;;;;5030208;28;20045;-75
2023/04/08 11:05:37;;;;;;;10.63;8.23;;;11.00;99.90;;;;;;5028151;28;20033;-75
2023/04/08 11:08:04;;;;;;;10.25;7.45;;;11.00;99.90;;;;;;5031065;28;20052;-74
2023/04/08 11:10:37;;;;;;;13.25;7.47;;;11.00;99.90;;;;;;5031934;28;20033;-75
2023/04/08 11:13:07;;;;;;;8.45;5.38;;;11.20;99.90;;;;;;5031747;28;20375;-75
2023/04/08 11:15:35;;;;;;;9.93;7.43;;;11.20;97.20;;;;;;5024689;28;20056;-74
2023/04/08 11:18:05;;;;;;;9.32;6.57;;;11.10;97.10;;;;;;5032517;28;20394;-75
2023/04/08 11:20:34;;;;;;;6.93;5.22;;;11.30;99.60;;;;;;5028133;28;20183;-74
2023/04/08 11:23:01;;;;;;;7.80;5.22;;;11.60;84.20;;;;;;5030680;28;20438;-74
2023/04/08 11:25:28;;;;;;;11.13;6.03;;;11.90;83.20;;;;;;5030981;28;20025;-75
2023/04/08 11:27:55;;;;;;;9.88;6.93;;;11.50;94.30;;;;;;5032267;28;20463;-74
2023/04/08 11:30:22;;;;;;;8.85;5.97;;;11.50;97.50;;;;;;5031019;28;20033;-71
2023/04/08 11:32:49;;;;;;;8.68;6.50;;;11.40;99.90;;;;;;5031108;28;20033;-74
2023/04/08 11:35:16;;;;;;;10.90;6.50;;;11.40;99.90;;;;;;5030332;28;20036;-76
2023/04/08 11:37:43;;;;;;;9.52;5.47;;;11.50;99.90;;;;;;5031825;28;20052;-74
2023/04/08 11:40:11;;;;;;;10.52;5.85;;;11.40;99.90;;;;;;5031899;28;20052;-74
2023/04/08 11:42:38;;;;;;;7.85;6.93;;;11.80;99.90;;;;;;5029140;28;20406;-77
2023/04/08 11:45:13;;;;;;;10.82;6.28;;;11.90;99.90;;;;;;5023677;28;20040;-75
2023/04/08 11:47:39;;;;;;;10.32;7.03;;;11.90;99.90;;;;;;5031084;28;20479;-74
2023/04/08 11:50:06;;;;;;;12.45;6.95;;;11.50;99.90;;;;;;5032073;28;20033;-74
2023/04/08 11:52:48;;;;;;;8.80;6.30;;;11.70;99.90;;;;;;5031560;28;20036;-73
2023/04/08 11:55:26;;;;;;;14.02;6.82;;;11.40;99.90;;;;;;5026569;28;20037;-81
2023/04/08 11:57:54;;;;;;;10.73;6.90;;;11.60;99.90;;;;;;5020380;28;20053;-73
2023/04/08 12:00:21;;;;;;;17.13;7.43;;;12.10;99.90;;;;;;5031486;28;20041;-73
2023/04/08 12:02:47;;;;;;;11.18;5.50;;;12.10;95.90;;;;;;5027966;28;20033;-74
2023/04/08 12:05:14;;;;;;;8.73;5.07;;;11.90;96.50;;;;;;5027030;28;20021;-73
2023/04/08 12:07:41;;;;;;;7.38;5.10;;;11.60;91.40;;;;;;5030292;28;20469;-73
2023/04/08 12:10:09;;;;;;;6.50;5.15;;;11.80;96.20;;;;;;5031864;28;20040;-72
2023/04/08 12:12:36;;;;;;;10.52;6.68;;;12.40;92.90;;;;;;5031143;28;20040;-72
2023/04/08 12:15:02;;;;;;;9.23;6.25;;;12.20;89.00;;;;;;5031904;28;20053;-72
2023/04/08 12:17:29;;;;;;;9.50;5.80;;;12.20;94.40;;;;;;5029444;28;20057;-74
2023/04/08 12:19:55;;;;;;;8.27;6.18;;;11.80;95.30;;;;;;5031257;28;20045;-73
2023/04/08 12:22:22;;;;;;;8.98;6.57;;;11.70;98.20;;;;;;5030683;28;20040;-74
2023/04/08 12:24:48;;;;;;;12.77;6.90;;;12.00;98.40;;;;;;5024066;28;20459;-73
2023/04/08 12:27:14;;;;;;;14.50;6.50;;;12.30;96.80;;;;;;5027787;28;20041;-73
2023/04/08 12:29:41;;;;;;;10.02;5.90;;;12.70;89.00;;;;;;5030670;28;20459;-74
2023/04/08 12:32:07;;;;;;;6.65;5.25;;;12.60;86.30;;;;;;5027670;28;20056;-73
2023/04/08 12:34:33;;;;;;;9.32;6.40;;;12.60;93.60;;;;;;5019085;28;20030;-74
2023/04/08 12:36:59;;;;;;;9.25;7.32;;;12.20;91.00;;;;;;5027970;28;20045;-78
2023/04/08 12:39:27;;;;;;;8.70;5.82;;;12.20;94.80;;;;;;5027823;28;20037;-74
2023/04/08 12:41:53;;;;;;;9.55;6.05;;;12.10;98.40;;;;;;5035132;28;20052;-74
2023/04/08 12:44:19;;;;;;;9.10;5.95;;;12.20;98.10;;;;;;5033172;28;20355;-74
2023/04/08 12:46:46;;;;;;;8.15;6.55;;;12.40;98.90;;;;;;5034117;28;20037;-76
2023/04/08 12:49:12;;;;;;;9.50;7.20;;;12.10;99.00;;;;;;5031220;28;20033;-74
2023/04/08 12:51:38;;;;;;;8.55;5.93;;;12.10;99.90;;;;;;5034285;28;20394;-73